< < Back
Terminal Aerodrome Forecast


Current Version              Previous Versions:   1  2  3  4  5  6  7  8  9  

Terminal Aerodrome Forecast

067
FTUS42 KTAE 232322
TAFDHN
TAF
KDHN 232322Z 2400/2424 08008KT P6SM SKC
     FM241500 11011KT P6SM FEW050=

Latest METAR

654
SAUS70 KWBC 241500 RRQ
MTRDHN
METAR KDHN 241453Z 12012KT 10SM BKN023 27/20 A3028 RMK AO2 SLP247
T02720200 56004


USA.gov is the U.S. government's official web portal to all federal, state and local government web resources and services.